createdAt,value
2019-02-22T00:04:11.641Z,45.53
2019-02-22T00:06:33.867Z,44.97
2019-02-22T00:08:54.408Z,44.73
2019-02-22T00:10:58.826Z,46.30
2019-02-22T00:13:03.193Z,45.10
2019-02-22T00:15:08.004Z,45.33
2019-02-22T00:17:12.323Z,45.00
2019-02-22T00:19:16.594Z,46.10
2019-02-22T00:21:20.859Z,45.37
2019-02-22T00:23:25.199Z,45.33
2019-02-22T00:25:29.592Z,44.40
2019-02-22T00:27:36.081Z,46.07
2019-02-22T00:43:36.956Z,46.63
2019-02-22T00:45:41.173Z,43.00
2019-02-22T00:47:45.328Z,46.13
2019-02-22T00:49:49.754Z,43.00
2019-02-22T00:51:54.396Z,45.73
2019-02-22T00:53:58.499Z,44.37
2019-02-22T00:56:02.690Z,46.47
2019-02-22T00:58:06.803Z,46.10
2019-02-22T01:00:10.901Z,45.00
2019-02-22T01:02:15.145Z,45.90
2019-02-22T01:04:19.579Z,44.77
2019-02-22T01:06:27.521Z,44.60
2019-02-22T01:08:32.303Z,46.17
2019-02-22T01:10:42.399Z,45.70
2019-02-22T01:12:46.568Z,46.13
2019-02-22T01:14:50.781Z,42.10
2019-02-22T01:16:57.218Z,48.13
2019-02-22T01:19:00.662Z,43.80
2019-02-22T01:21:04.725Z,46.10
2019-02-22T01:23:08.801Z,45.80
2019-02-22T01:25:12.845Z,47.27
2019-02-22T01:27:21.994Z,45.10
2019-02-22T01:29:23.316Z,45.70
2019-02-22T01:31:27.339Z,45.57
2019-02-22T01:33:31.538Z,46.77
2019-02-22T01:35:35.670Z,48.93
2019-02-22T01:37:39.641Z,45.90
2019-02-22T01:39:43.896Z,45.20
2019-02-22T01:41:48.138Z,46.50
2019-02-22T01:43:52.189Z,46.77
2019-02-22T01:45:56.392Z,45.43
2019-02-22T01:48:00.423Z,46.80
2019-02-22T01:50:04.726Z,45.37
2019-02-22T01:52:09.210Z,45.77
2019-02-22T01:54:14.034Z,46.50
2019-02-22T01:56:18.518Z,45.20
2019-02-22T01:58:23.106Z,48.47
2019-02-22T02:00:27.400Z,45.17
2019-02-22T02:02:31.699Z,47.10
2019-02-22T02:04:35.839Z,45.80
2019-02-22T02:06:39.953Z,46.03
2019-02-22T02:08:43.946Z,46.63
2019-02-22T02:10:54.101Z,44.83
2019-02-22T02:12:54.208Z,45.30
2019-02-22T02:14:58.100Z,47.57
2019-02-22T02:17:02.250Z,48.00
2019-02-22T02:19:06.818Z,49.10
2019-02-22T02:21:14.300Z,50.03
2019-02-22T02:23:25.645Z,50.70
2019-02-22T02:25:37.641Z,49.10
2019-02-22T02:27:52.275Z,49.47
2019-02-22T02:29:53.618Z,48.30
2019-02-22T02:31:58.575Z,46.90
2019-02-22T02:34:03.535Z,47.57
2019-02-22T02:36:17.803Z,46.20
2019-02-22T02:38:22.054Z,48.67
2019-02-22T02:40:32.610Z,46.70
2019-02-22T02:42:36.810Z,46.30
2019-02-22T02:44:42.450Z,48.07
2019-02-22T02:46:52.628Z,46.60
2019-02-22T02:49:05.033Z,48.20
2019-02-22T02:51:09.190Z,44.97
2019-02-22T02:53:14.873Z,47.10
2019-02-22T02:55:33.887Z,44.80
2019-02-22T02:57:38.365Z,47.27
2019-02-22T02:59:47.432Z,42.97
2019-02-22T03:01:54.796Z,45.50
2019-02-22T03:03:58.835Z,45.00
2019-02-22T03:06:19.131Z,45.00
2019-02-22T03:08:24.930Z,45.70
2019-02-22T03:10:31.476Z,48.73
2019-02-22T03:12:34.706Z,48.00
2019-02-22T03:14:38.717Z,47.50
2019-02-22T03:16:42.781Z,47.63
2019-02-22T03:18:46.941Z,44.77
2019-02-22T03:20:57.179Z,44.10
2019-02-22T03:23:04.216Z,47.60
2019-02-22T03:25:16.189Z,47.47
2019-02-22T03:27:22.785Z,46.20
2019-02-22T03:29:38.271Z,46.57
2019-02-22T03:31:45.637Z,47.93
2019-02-22T03:33:54.926Z,47.17
2019-02-22T03:36:01.696Z,48.13
2019-02-22T03:38:06.087Z,47.60
2019-02-22T03:40:15.344Z,49.63
2019-02-22T03:42:16.742Z,48.50
2019-02-22T03:44:33.234Z,49.83
2019-02-22T03:46:35.300Z,47.57
2019-02-22T03:48:39.455Z,47.53
2019-02-22T03:50:43.916Z,48.33
2019-02-22T03:52:51.592Z,50.00
2019-02-22T03:54:55.734Z,49.93
2019-02-22T03:57:01.245Z,50.27
2019-02-22T03:59:05.527Z,49.47
2019-02-22T04:01:09.658Z,49.60
2019-02-22T04:03:19.860Z,47.23
2019-02-22T04:05:24.775Z,44.63
2019-02-22T04:07:28.908Z,48.53
2019-02-22T04:09:33.513Z,49.77
2019-02-22T04:11:45.581Z,46.43
2019-02-22T04:13:50.193Z,47.17
2019-02-22T04:15:57.532Z,45.80
2019-02-22T04:18:01.603Z,48.53
2019-02-22T04:20:13.736Z,45.43
2019-02-22T04:22:17.848Z,49.63
2019-02-22T04:24:22.200Z,45.53
2019-02-22T04:26:26.261Z,48.57
2019-02-22T04:28:30.416Z,46.50
2019-02-22T04:30:37.988Z,46.00
2019-02-22T04:32:42.439Z,45.70
2019-02-22T04:34:46.529Z,47.27
2019-02-22T04:36:51.184Z,47.13
2019-02-22T04:38:57.342Z,47.07
2019-02-22T04:41:01.379Z,47.17
2019-02-22T04:43:05.430Z,44.80
2019-02-22T04:45:09.620Z,44.17
2019-02-22T04:47:13.758Z,45.07
2019-02-22T04:49:17.778Z,47.93
2019-02-22T04:51:22.243Z,46.97
2019-02-22T04:53:29.208Z,48.27
2019-02-22T04:55:32.500Z,45.33
2019-02-22T04:57:36.480Z,44.10
2019-02-22T04:59:40.655Z,46.37
2019-02-22T05:01:44.734Z,47.67
2019-02-22T05:03:48.656Z,46.37
2019-02-22T05:05:52.631Z,45.20
2019-02-22T05:07:56.601Z,49.27
2019-02-22T05:10:00.601Z,44.77
2019-02-22T05:12:10.789Z,45.63
2019-02-22T05:14:10.531Z,44.53
2019-02-22T05:16:14.517Z,46.93
2019-02-22T05:18:19.369Z,46.67
2019-02-22T05:20:23.328Z,43.00
2019-02-22T05:22:27.288Z,42.50
2019-02-22T05:24:31.517Z,42.80
2019-02-22T05:26:35.645Z,43.47
2019-02-22T07:08:11.084Z,49.30
2019-02-22T07:14:19.309Z,49.67
2019-02-22T07:23:39.202Z,47.73
2019-02-22T07:26:24.680Z,51.27
2019-02-22T07:29:50.985Z,49.80
2019-02-22T07:35:50.079Z,48.37
2019-02-22T07:42:26.599Z,49.03
2019-02-22T07:59:34.480Z,48.03
2019-02-22T08:01:52.445Z,48.77
2019-02-22T08:03:59.796Z,47.60
2019-02-22T08:09:37.085Z,48.17
2019-02-22T08:11:43.213Z,49.07
2019-02-22T08:14:16.989Z,50.73
2019-02-22T08:16:49.354Z,45.97
2019-02-22T08:19:01.588Z,46.97
2019-02-22T08:21:05.803Z,48.67
2019-02-22T08:23:09.877Z,47.73
2019-02-22T08:25:17.663Z,46.47
2019-02-22T08:27:27.760Z,46.37
2019-02-22T08:29:32.219Z,45.13
2019-02-22T08:31:42.647Z,45.47
2019-02-22T08:33:57.185Z,48.00
2019-02-22T08:36:07.964Z,47.90
2019-02-22T08:38:14.206Z,47.53
2019-02-22T08:40:23.833Z,47.37
2019-02-22T08:42:33.496Z,44.67
2019-02-22T08:44:47.479Z,44.87
2019-02-22T08:47:02.709Z,42.77
2019-02-22T08:49:09.280Z,42.63
2019-02-22T08:51:28.566Z,42.60
2019-02-22T08:53:40.459Z,42.37
2019-02-22T08:55:52.514Z,42.30
2019-02-22T08:57:59.971Z,43.20
2019-02-22T09:00:15.388Z,42.00
2019-02-22T09:02:23.219Z,39.67
2019-02-22T09:04:36.432Z,41.10
2019-02-22T09:06:47.256Z,41.57
2019-02-22T09:09:03.338Z,38.47
2019-02-22T09:11:24.255Z,39.43
2019-02-22T09:13:48.431Z,41.80
2019-02-22T09:15:57.208Z,40.20
2019-02-22T09:18:13.388Z,39.73
2019-02-22T09:20:24.356Z,41.37
2019-02-22T09:22:32.849Z,37.00
2019-02-22T09:24:42.829Z,38.10
2019-02-22T09:26:59.096Z,38.87
2019-02-22T09:29:09.465Z,39.37
2019-02-22T09:31:28.429Z,37.97
2019-02-22T09:33:45.240Z,38.47
2019-02-22T09:36:04.361Z,37.67
2019-02-22T09:38:21.104Z,38.67
2019-02-22T09:40:30.721Z,38.07
2019-02-22T09:42:41.395Z,38.17
2019-02-22T09:44:51.670Z,38.90
2019-02-22T09:47:04.538Z,40.10
2019-02-22T09:49:19.515Z,37.07
2019-02-22T09:51:45.738Z,36.90
2019-02-22T09:54:10.764Z,33.30
2019-02-22T09:56:20.372Z,32.70
2019-02-22T09:58:32.779Z,34.50
2019-02-22T10:00:51.891Z,33.63
2019-02-22T10:03:10.285Z,33.83
2019-02-22T10:05:23.445Z,32.83
2019-02-22T10:07:47.274Z,33.87
2019-02-22T10:09:56.007Z,34.20
2019-02-22T10:12:06.473Z,31.77
2019-02-22T10:14:21.955Z,32.77
2019-02-22T10:16:36.141Z,31.30
2019-02-22T10:18:46.352Z,31.27
2019-02-22T10:21:04.410Z,31.00
2019-02-22T10:23:18.365Z,30.50
2019-02-22T10:25:34.580Z,32.90
2019-02-22T10:27:54.244Z,32.80
2019-02-22T10:29:59.684Z,29.87
2019-02-22T10:32:17.738Z,32.10
2019-02-22T10:34:37.467Z,31.83
2019-02-22T10:36:54.968Z,32.00
2019-02-22T10:39:08.461Z,34.07
2019-02-22T10:41:31.101Z,33.53
2019-02-22T10:44:17.465Z,32.87
2019-02-22T10:46:22.888Z,32.83
2019-02-22T10:48:40.300Z,30.40
2019-02-22T10:50:59.318Z,32.93
2019-02-22T10:53:26.762Z,32.30
2019-02-22T10:55:42.160Z,31.73
2019-02-22T10:57:55.254Z,28.67
2019-02-22T11:00:13.458Z,33.63
2019-02-22T11:02:31.313Z,30.47
2019-02-22T11:04:41.560Z,30.47
2019-02-22T11:06:54.591Z,31.23
2019-02-22T11:08:56.683Z,29.60
2019-02-22T11:11:08.777Z,30.03
2019-02-22T11:13:15.308Z,29.27
2019-02-22T11:15:25.704Z,29.50
2019-02-22T11:17:37.122Z,30.47
2019-02-22T11:19:44.265Z,29.13
2019-02-22T11:21:59.203Z,28.60
2019-02-22T11:24:06.458Z,27.73
2019-02-22T11:26:16.801Z,27.40
2019-02-22T11:28:24.383Z,26.27
2019-02-22T11:30:33.806Z,27.93
2019-02-22T11:32:49.327Z,29.60
2019-02-22T11:34:57.044Z,28.53
2019-02-22T11:37:03.771Z,27.63
2019-02-22T11:39:22.979Z,29.10
2019-02-22T11:41:28.881Z,27.07
2019-02-22T11:43:39.011Z,25.10
2019-02-22T11:45:49.896Z,27.73
2019-02-22T11:47:52.624Z,26.90
2019-02-22T11:50:07.225Z,25.13
2019-02-22T11:52:15.132Z,25.30
2019-02-22T11:54:27.950Z,24.17
2019-02-22T11:56:38.347Z,24.60
2019-02-22T11:58:57.434Z,23.40
2019-02-22T12:01:19.702Z,20.93
2019-02-22T12:03:26.332Z,22.27
2019-02-22T12:05:39.117Z,21.80
2019-02-22T12:07:41.583Z,19.73
2019-02-22T12:15:49.410Z,20.60
2019-02-22T12:16:28.602Z,21.00
2019-02-22T12:18:41.758Z,23.27
2019-02-22T12:20:46.066Z,23.47
2019-02-22T12:23:36.299Z,24.13
2019-02-22T12:25:48.142Z,26.33
2019-02-22T12:28:13.145Z,24.77
2019-02-22T12:30:34.838Z,23.27
2019-02-22T12:33:21.778Z,25.00
2019-02-22T12:36:13.469Z,28.50
2019-02-22T12:38:51.430Z,24.60
2019-02-22T12:41:00.046Z,23.30
2019-02-22T12:43:17.563Z,26.43
2019-02-22T12:46:27.056Z,27.23
2019-02-22T12:48:34.108Z,23.53
2019-02-22T12:51:10.078Z,25.20
2019-02-22T12:55:55.463Z,25.10
2019-02-22T12:58:10.750Z,22.53
2019-02-22T13:00:30.004Z,23.30
2019-02-22T13:02:47.551Z,24.10
2019-02-22T13:05:03.792Z,25.33
2019-02-22T13:07:25.729Z,26.77
2019-02-22T13:10:35.779Z,27.13
2019-02-22T13:12:59.388Z,24.80
2019-02-22T13:15:29.456Z,24.97
2019-02-22T13:17:36.245Z,25.70
2019-02-22T13:19:54.287Z,25.10
2019-02-22T13:22:07.502Z,28.83
2019-02-22T13:24:39.802Z,27.30
2019-02-22T13:27:21.740Z,26.27
2019-02-22T13:30:40.544Z,26.03
2019-02-22T13:33:26.145Z,28.07
2019-02-22T13:36:08.769Z,29.27
2019-02-22T13:42:03.923Z,32.03
2019-02-22T13:44:45.910Z,34.23
2019-02-22T13:47:47.271Z,34.00
2019-02-22T13:53:06.145Z,35.20
2019-02-22T13:56:03.439Z,30.40
2019-02-22T14:35:42.335Z,29.83
2019-02-22T15:19:30.925Z,31.90
2019-02-22T15:22:56.987Z,29.73
2019-02-22T15:25:02.174Z,30.03
2019-02-22T15:28:04.979Z,30.40
2019-02-22T15:31:06.957Z,28.20
2019-02-22T15:34:00.263Z,30.57
2019-02-22T15:36:20.789Z,29.17
2019-02-22T15:45:30.399Z,28.60
2019-02-22T15:48:24.625Z,31.20
2019-02-22T15:51:54.214Z,27.67
2019-02-22T21:10:58.782Z,23.27
2019-02-22T21:19:37.386Z,27.80
2019-02-22T21:21:59.779Z,27.60
2019-02-22T21:24:18.578Z,28.63
2019-02-22T21:27:09.978Z,29.53
2019-02-22T21:29:54.760Z,32.47
2019-02-22T21:33:10.862Z,31.87
2019-02-22T21:35:56.549Z,31.73
2019-02-22T21:38:57.261Z,32.47
2019-02-22T21:41:24.916Z,32.90
2019-02-22T21:43:41.371Z,33.00
2019-02-22T21:46:04.403Z,32.63
2019-02-22T21:48:37.062Z,31.67
2019-02-22T21:51:25.066Z,35.67
2019-02-22T21:59:21.401Z,32.83
2019-02-22T22:01:45.454Z,33.50
2019-02-22T22:04:17.184Z,34.73
2019-02-22T22:06:42.788Z,34.80
2019-02-22T22:09:12.080Z,35.20
2019-02-22T22:11:27.134Z,35.73
2019-02-22T22:13:51.947Z,33.63
2019-02-22T22:16:27.640Z,39.07
2019-02-22T22:19:24.276Z,36.53
2019-02-22T22:28:18.733Z,40.33
2019-02-22T22:31:35.137Z,40.47
2019-02-22T22:40:47.231Z,40.80
2019-02-22T22:43:55.089Z,42.17
2019-02-22T22:50:18.094Z,38.30
2019-02-22T22:52:47.815Z,39.53
2019-02-22T23:01:54.896Z,38.97
2019-02-22T23:07:53.676Z,39.33
2019-02-22T23:15:49.158Z,35.33
2019-02-22T23:21:12.849Z,38.20
2019-02-22T23:27:31.781Z,37.27
2019-02-22T23:36:50.242Z,34.37
2019-02-22T23:43:13.604Z,36.43
2019-02-22T23:57:49.835Z,33.03
